sensor_id;sensor_type;location;lat;lon;timestamp;P1;durP1;ratioP1;P2;durP2;ratioP2
73841;SDS011;62184;52.006;5.924;2023-02-28T00:01:20;10.00;;;6.90;;
73841;SDS011;62184;52.006;5.924;2023-02-28T00:03:50;10.57;;;6.82;;
73841;SDS011;62184;52.006;5.924;2023-02-28T00:06:17;8.82;;;6.63;;
73841;SDS011;62184;52.006;5.924;2023-02-28T00:08:44;8.75;;;6.78;;
73841;SDS011;62184;52.006;5.924;2023-02-28T00:11:10;9.50;;;6.30;;
73841;SDS011;62184;52.006;5.924;2023-02-28T00:13:41;10.10;;;6.30;;
73841;SDS011;62184;52.006;5.924;2023-02-28T00:16:12;9.82;;;6.78;;
73841;SDS011;62184;52.006;5.924;2023-02-28T00:18:43;9.80;;;6.97;;
73841;SDS011;62184;52.006;5.924;2023-02-28T00:21:11;9.67;;;6.60;;
73841;SDS011;62184;52.006;5.924;2023-02-28T00:23:38;9.30;;;7.07;;
73841;SDS011;62184;52.006;5.924;2023-02-28T00:26:04;10.63;;;6.78;;
73841;SDS011;62184;52.006;5.924;2023-02-28T00:28:31;9.50;;;6.60;;
73841;SDS011;62184;52.006;5.924;2023-02-28T00:30:58;10.80;;;6.93;;
73841;SDS011;62184;52.006;5.924;2023-02-28T00:33:25;9.23;;;6.38;;
73841;SDS011;62184;52.006;5.924;2023-02-28T00:35:52;8.82;;;6.40;;
73841;SDS011;62184;52.006;5.924;2023-02-28T00:38:28;11.13;;;6.60;;
73841;SDS011;62184;52.006;5.924;2023-02-28T00:40:55;10.37;;;7.07;;
73841;SDS011;62184;52.006;5.924;2023-02-28T00:43:21;10.20;;;6.50;;
73841;SDS011;62184;52.006;5.924;2023-02-28T00:45:48;9.90;;;6.77;;
73841;SDS011;62184;52.006;5.924;2023-02-28T00:48:14;8.93;;;6.40;;
73841;SDS011;62184;52.006;5.924;2023-02-28T00:50:40;10.27;;;6.70;;
73841;SDS011;62184;52.006;5.924;2023-02-28T00:53:07;8.85;;;6.50;;
73841;SDS011;62184;52.006;5.924;2023-02-28T00:55:36;9.83;;;6.60;;
73841;SDS011;62184;52.006;5.924;2023-02-28T00:58:02;9.25;;;6.30;;
73841;SDS011;62184;52.006;5.924;2023-02-28T01:00:29;10.43;;;7.13;;
73841;SDS011;62184;52.006;5.924;2023-02-28T01:02:56;10.13;;;6.40;;
73841;SDS011;62184;52.006;5.924;2023-02-28T01:05:22;9.73;;;6.10;;
73841;SDS011;62184;52.006;5.924;2023-02-28T01:07:49;9.57;;;6.47;;
73841;SDS011;62184;52.006;5.924;2023-02-28T01:10:16;9.30;;;6.80;;
73841;SDS011;62184;52.006;5.924;2023-02-28T01:12:45;10.60;;;6.35;;
73841;SDS011;62184;52.006;5.924;2023-02-28T01:15:11;9.73;;;6.47;;
73841;SDS011;62184;52.006;5.924;2023-02-28T01:17:38;8.40;;;6.50;;
73841;SDS011;62184;52.006;5.924;2023-02-28T01:20:05;10.20;;;6.60;;
73841;SDS011;62184;52.006;5.924;2023-02-28T01:22:34;9.70;;;6.70;;
73841;SDS011;62184;52.006;5.924;2023-02-28T01:25:00;9.95;;;6.63;;
73841;SDS011;62184;52.006;5.924;2023-02-28T01:27:27;9.80;;;6.40;;
73841;SDS011;62184;52.006;5.924;2023-02-28T01:29:56;11.02;;;6.88;;
73841;SDS011;62184;52.006;5.924;2023-02-28T01:32:22;10.60;;;6.85;;
73841;SDS011;62184;52.006;5.924;2023-02-28T01:34:49;10.27;;;6.75;;
73841;SDS011;62184;52.006;5.924;2023-02-28T01:37:15;9.60;;;6.60;;
73841;SDS011;62184;52.006;5.924;2023-02-28T01:39:41;11.20;;;7.40;;
73841;SDS011;62184;52.006;5.924;2023-02-28T01:42:08;10.52;;;7.15;;
73841;SDS011;62184;52.006;5.924;2023-02-28T01:47:32;10.63;;;6.65;;
73841;SDS011;62184;52.006;5.924;2023-02-28T01:50:07;9.27;;;7.20;;
73841;SDS011;62184;52.006;5.924;2023-02-28T01:52:40;10.48;;;7.28;;
73841;SDS011;62184;52.006;5.924;2023-02-28T01:55:08;11.20;;;7.18;;
73841;SDS011;62184;52.006;5.924;2023-02-28T01:57:38;9.93;;;7.10;;
73841;SDS011;62184;52.006;5.924;2023-02-28T02:00:14;10.38;;;6.95;;
73841;SDS011;62184;52.006;5.924;2023-02-28T02:02:46;11.55;;;7.38;;
73841;SDS011;62184;52.006;5.924;2023-02-28T02:05:17;11.68;;;7.10;;
73841;SDS011;62184;52.006;5.924;2023-02-28T02:07:47;10.85;;;7.03;;
73841;SDS011;62184;52.006;5.924;2023-02-28T02:10:19;11.05;;;7.35;;
73841;SDS011;62184;52.006;5.924;2023-02-28T02:12:56;9.80;;;7.25;;
73841;SDS011;62184;52.006;5.924;2023-02-28T02:15:42;10.20;;;7.28;;
73841;SDS011;62184;52.006;5.924;2023-02-28T02:18:22;11.68;;;7.55;;
73841;SDS011;62184;52.006;5.924;2023-02-28T02:24:25;11.32;;;7.38;;
73841;SDS011;62184;52.006;5.924;2023-02-28T02:27:23;11.07;;;7.57;;
73841;SDS011;62184;52.006;5.924;2023-02-28T02:30:27;10.77;;;7.13;;
73841;SDS011;62184;52.006;5.924;2023-02-28T02:33:26;9.13;;;7.60;;
73841;SDS011;62184;52.006;5.924;2023-02-28T02:36:42;10.27;;;6.47;;
73841;SDS011;62184;52.006;5.924;2023-02-28T02:39:14;9.32;;;6.40;;
73841;SDS011;62184;52.006;5.924;2023-02-28T02:41:52;9.95;;;6.57;;
73841;SDS011;62184;52.006;5.924;2023-02-28T02:44:23;10.52;;;6.85;;
73841;SDS011;62184;52.006;5.924;2023-02-28T02:46:54;10.27;;;6.53;;
73841;SDS011;62184;52.006;5.924;2023-02-28T02:49:33;11.30;;;7.80;;
73841;SDS011;62184;52.006;5.924;2023-02-28T02:52:04;9.83;;;6.87;;
73841;SDS011;62184;52.006;5.924;2023-02-28T02:54:38;10.82;;;6.88;;
73841;SDS011;62184;52.006;5.924;2023-02-28T02:57:12;9.37;;;6.80;;
73841;SDS011;62184;52.006;5.924;2023-02-28T02:59:48;9.18;;;7.50;;
73841;SDS011;62184;52.006;5.924;2023-02-28T03:02:19;8.87;;;7.23;;
73841;SDS011;62184;52.006;5.924;2023-02-28T03:04:51;9.80;;;7.57;;
73841;SDS011;62184;52.006;5.924;2023-02-28T03:07:25;8.80;;;7.30;;
73841;SDS011;62184;52.006;5.924;2023-02-28T03:09:52;9.18;;;7.70;;
73841;SDS011;62184;52.006;5.924;2023-02-28T03:12:21;9.47;;;7.47;;
73841;SDS011;62184;52.006;5.924;2023-02-28T03:15:00;9.30;;;7.70;;
73841;SDS011;62184;52.006;5.924;2023-02-28T03:17:48;9.67;;;7.00;;
73841;SDS011;62184;52.006;5.924;2023-02-28T03:20:38;10.48;;;7.15;;
73841;SDS011;62184;52.006;5.924;2023-02-28T03:23:23;8.80;;;7.40;;
73841;SDS011;62184;52.006;5.924;2023-02-28T03:26:04;9.67;;;7.40;;
73841;SDS011;62184;52.006;5.924;2023-02-28T03:28:43;9.40;;;7.15;;
73841;SDS011;62184;52.006;5.924;2023-02-28T03:31:25;10.25;;;7.20;;
73841;SDS011;62184;52.006;5.924;2023-02-28T03:33:59;9.47;;;7.10;;
73841;SDS011;62184;52.006;5.924;2023-02-28T03:36:37;9.10;;;7.63;;
73841;SDS011;62184;52.006;5.924;2023-02-28T03:39:12;8.98;;;7.60;;
73841;SDS011;62184;52.006;5.924;2023-02-28T03:41:45;9.60;;;7.77;;
73841;SDS011;62184;52.006;5.924;2023-02-28T03:44:21;8.70;;;7.47;;
73841;SDS011;62184;52.006;5.924;2023-02-28T03:46:58;9.98;;;7.40;;
73841;SDS011;62184;52.006;5.924;2023-02-28T03:49:34;9.70;;;7.60;;
73841;SDS011;62184;52.006;5.924;2023-02-28T03:52:11;9.00;;;6.95;;
73841;SDS011;62184;52.006;5.924;2023-02-28T03:54:41;9.10;;;7.00;;
73841;SDS011;62184;52.006;5.924;2023-02-28T03:57:15;8.20;;;6.60;;
73841;SDS011;62184;52.006;5.924;2023-02-28T03:59:53;7.22;;;6.40;;
73841;SDS011;62184;52.006;5.924;2023-02-28T04:02:27;7.97;;;7.13;;
73841;SDS011;62184;52.006;5.924;2023-02-28T04:04:53;9.80;;;6.90;;
73841;SDS011;62184;52.006;5.924;2023-02-28T04:07:22;8.80;;;6.97;;
73841;SDS011;62184;52.006;5.924;2023-02-28T04:09:49;8.45;;;6.40;;
73841;SDS011;62184;52.006;5.924;2023-02-28T04:12:15;8.18;;;6.47;;
73841;SDS011;62184;52.006;5.924;2023-02-28T04:14:42;7.90;;;6.75;;
73841;SDS011;62184;52.006;5.924;2023-02-28T04:17:08;7.80;;;6.80;;
73841;SDS011;62184;52.006;5.924;2023-02-28T04:19:35;8.85;;;6.90;;
73841;SDS011;62184;52.006;5.924;2023-02-28T04:22:01;9.43;;;7.40;;
73841;SDS011;62184;52.006;5.924;2023-02-28T04:24:30;8.43;;;7.20;;
73841;SDS011;62184;52.006;5.924;2023-02-28T04:26:57;8.50;;;7.70;;
73841;SDS011;62184;52.006;5.924;2023-02-28T04:29:24;7.95;;;7.00;;
73841;SDS011;62184;52.006;5.924;2023-02-28T04:31:53;9.47;;;7.00;;
73841;SDS011;62184;52.006;5.924;2023-02-28T04:34:21;7.63;;;6.83;;
73841;SDS011;62184;52.006;5.924;2023-02-28T04:36:48;8.60;;;7.18;;
73841;SDS011;62184;52.006;5.924;2023-02-28T04:39:14;7.82;;;6.70;;
73841;SDS011;62184;52.006;5.924;2023-02-28T04:41:43;9.05;;;7.00;;
73841;SDS011;62184;52.006;5.924;2023-02-28T04:44:10;8.70;;;6.90;;
73841;SDS011;62184;52.006;5.924;2023-02-28T04:46:37;8.85;;;7.05;;
73841;SDS011;62184;52.006;5.924;2023-02-28T04:49:03;8.03;;;6.97;;
73841;SDS011;62184;52.006;5.924;2023-02-28T04:51:30;9.00;;;6.90;;
73841;SDS011;62184;52.006;5.924;2023-02-28T04:53:56;8.98;;;7.13;;
73841;SDS011;62184;52.006;5.924;2023-02-28T04:56:23;8.93;;;6.53;;
73841;SDS011;62184;52.006;5.924;2023-02-28T04:58:52;8.20;;;7.00;;
73841;SDS011;62184;52.006;5.924;2023-02-28T05:01:20;9.70;;;7.47;;
73841;SDS011;62184;52.006;5.924;2023-02-28T05:03:50;8.60;;;7.20;;
73841;SDS011;62184;52.006;5.924;2023-02-28T05:06:20;8.32;;;6.97;;
73841;SDS011;62184;52.006;5.924;2023-02-28T05:08:47;7.97;;;6.80;;
73841;SDS011;62184;52.006;5.924;2023-02-28T05:11:15;8.90;;;6.37;;
73841;SDS011;62184;52.006;5.924;2023-02-28T05:13:45;8.57;;;7.00;;
73841;SDS011;62184;52.006;5.924;2023-02-28T05:16:14;9.23;;;6.53;;
73841;SDS011;62184;52.006;5.924;2023-02-28T05:18:42;8.20;;;6.57;;
73841;SDS011;62184;52.006;5.924;2023-02-28T05:21:19;8.95;;;6.63;;
73841;SDS011;62184;52.006;5.924;2023-02-28T05:23:52;8.55;;;6.40;;
73841;SDS011;62184;52.006;5.924;2023-02-28T05:26:19;9.32;;;6.55;;
73841;SDS011;62184;52.006;5.924;2023-02-28T05:28:45;8.30;;;6.20;;
73841;SDS011;62184;52.006;5.924;2023-02-28T05:31:12;8.25;;;6.70;;
73841;SDS011;62184;52.006;5.924;2023-02-28T05:33:41;8.38;;;6.47;;
73841;SDS011;62184;52.006;5.924;2023-02-28T05:36:08;8.95;;;6.78;;
73841;SDS011;62184;52.006;5.924;2023-02-28T05:38:35;8.10;;;6.63;;
73841;SDS011;62184;52.006;5.924;2023-02-28T05:41:04;8.70;;;6.70;;
73841;SDS011;62184;52.006;5.924;2023-02-28T05:43:32;9.52;;;7.10;;
73841;SDS011;62184;52.006;5.924;2023-02-28T05:45:59;12.07;;;6.65;;
73841;SDS011;62184;52.006;5.924;2023-02-28T05:48:31;9.63;;;6.63;;
73841;SDS011;62184;52.006;5.924;2023-02-28T05:50:58;8.23;;;6.60;;
73841;SDS011;62184;52.006;5.924;2023-02-28T05:53:25;8.10;;;6.57;;
73841;SDS011;62184;52.006;5.924;2023-02-28T05:55:52;9.70;;;6.53;;
73841;SDS011;62184;52.006;5.924;2023-02-28T05:58:18;10.00;;;6.20;;
73841;SDS011;62184;52.006;5.924;2023-02-28T06:00:45;7.63;;;6.30;;
73841;SDS011;62184;52.006;5.924;2023-02-28T06:03:11;9.13;;;6.30;;
73841;SDS011;62184;52.006;5.924;2023-02-28T06:05:40;8.30;;;6.30;;
73841;SDS011;62184;52.006;5.924;2023-02-28T06:08:07;7.75;;;6.18;;
73841;SDS011;62184;52.006;5.924;2023-02-28T06:10:33;8.55;;;6.30;;
73841;SDS011;62184;52.006;5.924;2023-02-28T06:13:00;7.70;;;6.20;;
73841;SDS011;62184;52.006;5.924;2023-02-28T06:15:26;7.60;;;5.60;;
73841;SDS011;62184;52.006;5.924;2023-02-28T06:17:53;7.30;;;6.37;;
73841;SDS011;62184;52.006;5.924;2023-02-28T06:20:19;7.57;;;5.80;;
73841;SDS011;62184;52.006;5.924;2023-02-28T06:22:48;7.03;;;6.03;;
73841;SDS011;62184;52.006;5.924;2023-02-28T06:25:15;7.87;;;6.03;;
73841;SDS011;62184;52.006;5.924;2023-02-28T06:27:42;7.00;;;6.05;;
73841;SDS011;62184;52.006;5.924;2023-02-28T06:30:10;6.32;;;5.60;;
73841;SDS011;62184;52.006;5.924;2023-02-28T06:32:37;7.27;;;5.60;;
73841;SDS011;62184;52.006;5.924;2023-02-28T06:35:04;5.73;;;5.10;;
73841;SDS011;62184;52.006;5.924;2023-02-28T06:37:31;7.30;;;5.50;;
73841;SDS011;62184;52.006;5.924;2023-02-28T06:40:00;6.22;;;5.30;;
73841;SDS011;62184;52.006;5.924;2023-02-28T06:42:27;7.23;;;5.20;;
73841;SDS011;62184;52.006;5.924;2023-02-28T06:44:54;6.47;;;5.10;;
73841;SDS011;62184;52.006;5.924;2023-02-28T06:47:21;6.23;;;5.53;;
73841;SDS011;62184;52.006;5.924;2023-02-28T06:49:48;6.03;;;5.40;;
73841;SDS011;62184;52.006;5.924;2023-02-28T06:52:15;5.90;;;5.30;;
73841;SDS011;62184;52.006;5.924;2023-02-28T06:54:41;6.10;;;5.50;;
73841;SDS011;62184;52.006;5.924;2023-02-28T06:57:11;7.63;;;6.07;;
73841;SDS011;62184;52.006;5.924;2023-02-28T06:59:37;7.70;;;6.85;;
73841;SDS011;62184;52.006;5.924;2023-02-28T07:02:03;6.65;;;6.00;;
73841;SDS011;62184;52.006;5.924;2023-02-28T07:04:30;7.35;;;6.30;;
73841;SDS011;62184;52.006;5.924;2023-02-28T07:06:56;7.93;;;6.45;;
73841;SDS011;62184;52.006;5.924;2023-02-28T07:09:23;7.00;;;6.30;;
73841;SDS011;62184;52.006;5.924;2023-02-28T07:11:49;8.30;;;6.13;;
73841;SDS011;62184;52.006;5.924;2023-02-28T07:14:18;8.30;;;6.87;;
73841;SDS011;62184;52.006;5.924;2023-02-28T07:16:45;7.70;;;6.50;;
73841;SDS011;62184;52.006;5.924;2023-02-28T07:19:11;7.20;;;6.43;;
73841;SDS011;62184;52.006;5.924;2023-02-28T07:21:38;7.70;;;6.70;;
73841;SDS011;62184;52.006;5.924;2023-02-28T07:24:04;8.70;;;7.05;;
73841;SDS011;62184;52.006;5.924;2023-02-28T07:26:31;8.30;;;7.50;;
73841;SDS011;62184;52.006;5.924;2023-02-28T07:28:58;7.85;;;7.10;;
73841;SDS011;62184;52.006;5.924;2023-02-28T07:31:27;8.02;;;7.22;;
73841;SDS011;62184;52.006;5.924;2023-02-28T07:33:53;8.10;;;7.30;;
73841;SDS011;62184;52.006;5.924;2023-02-28T07:36:20;8.17;;;7.37;;
73841;SDS011;62184;52.006;5.924;2023-02-28T07:38:47;8.70;;;7.63;;
73841;SDS011;62184;52.006;5.924;2023-02-28T07:41:15;8.73;;;7.82;;
73841;SDS011;62184;52.006;5.924;2023-02-28T07:43:42;10.10;;;7.95;;
73841;SDS011;62184;52.006;5.924;2023-02-28T07:46:10;9.40;;;8.50;;
73841;SDS011;62184;52.006;5.924;2023-02-28T07:48:41;9.15;;;8.25;;
73841;SDS011;62184;52.006;5.924;2023-02-28T07:51:08;8.70;;;7.82;;
73841;SDS011;62184;52.006;5.924;2023-02-28T07:53:35;9.20;;;8.30;;
73841;SDS011;62184;52.006;5.924;2023-02-28T07:56:02;8.97;;;8.13;;
73841;SDS011;62184;52.006;5.924;2023-02-28T07:58:29;9.45;;;8.50;;
73841;SDS011;62184;52.006;5.924;2023-02-28T08:00:57;9.82;;;8.30;;
73841;SDS011;62184;52.006;5.924;2023-02-28T08:03:30;9.00;;;8.10;;
73841;SDS011;62184;52.006;5.924;2023-02-28T08:05:59;9.30;;;8.40;;
73841;SDS011;62184;52.006;5.924;2023-02-28T08:08:26;9.20;;;8.25;;
73841;SDS011;62184;52.006;5.924;2023-02-28T08:10:52;9.02;;;8.10;;
73841;SDS011;62184;52.006;5.924;2023-02-28T08:13:19;9.05;;;8.15;;
73841;SDS011;62184;52.006;5.924;2023-02-28T08:15:45;8.82;;;8.02;;
73841;SDS011;62184;52.006;5.924;2023-02-28T08:18:12;9.18;;;8.38;;
73841;SDS011;62184;52.006;5.924;2023-02-28T08:20:38;9.60;;;8.70;;
73841;SDS011;62184;52.006;5.924;2023-02-28T08:23:07;9.30;;;8.40;;
73841;SDS011;62184;52.006;5.924;2023-02-28T08:25:33;9.15;;;8.35;;
73841;SDS011;62184;52.006;5.924;2023-02-28T08:28:00;9.60;;;8.80;;
73841;SDS011;62184;52.006;5.924;2023-02-28T08:30:26;9.30;;;8.50;;
73841;SDS011;62184;52.006;5.924;2023-02-28T08:32:53;9.70;;;8.80;;
73841;SDS011;62184;52.006;5.924;2023-02-28T08:35:19;9.15;;;8.35;;
73841;SDS011;62184;52.006;5.924;2023-02-28T08:37:47;9.45;;;8.65;;
73841;SDS011;62184;52.006;5.924;2023-02-28T08:40:16;9.23;;;8.43;;
73841;SDS011;62184;52.006;5.924;2023-02-28T08:42:43;9.40;;;8.60;;
73841;SDS011;62184;52.006;5.924;2023-02-28T08:45:10;9.10;;;8.40;;
73841;SDS011;62184;52.006;5.924;2023-02-28T08:47:37;10.00;;;9.20;;
73841;SDS011;62184;52.006;5.924;2023-02-28T08:50:04;10.07;;;9.27;;
73841;SDS011;62184;52.006;5.924;2023-02-28T08:52:31;10.48;;;9.57;;
73841;SDS011;62184;52.006;5.924;2023-02-28T08:54:58;10.27;;;9.48;;
73841;SDS011;62184;52.006;5.924;2023-02-28T08:57:27;10.00;;;9.20;;
73841;SDS011;62184;52.006;5.924;2023-02-28T08:59:53;10.77;;;9.93;;
73841;SDS011;62184;52.006;5.924;2023-02-28T09:02:20;10.00;;;9.20;;
73841;SDS011;62184;52.006;5.924;2023-02-28T09:04:46;10.65;;;9.73;;
73841;SDS011;62184;52.006;5.924;2023-02-28T09:07:13;10.60;;;9.80;;
73841;SDS011;62184;52.006;5.924;2023-02-28T09:09:39;10.63;;;9.82;;
73841;SDS011;62184;52.006;5.924;2023-02-28T09:12:06;10.73;;;9.93;;
73841;SDS011;62184;52.006;5.924;2023-02-28T09:14:35;10.50;;;9.70;;
73841;SDS011;62184;52.006;5.924;2023-02-28T09:17:02;10.90;;;10.02;;
73841;SDS011;62184;52.006;5.924;2023-02-28T09:19:28;11.30;;;10.50;;
73841;SDS011;62184;52.006;5.924;2023-02-28T09:21:54;11.32;;;10.52;;
73841;SDS011;62184;52.006;5.924;2023-02-28T09:24:21;12.32;;;11.43;;
73841;SDS011;62184;52.006;5.924;2023-02-28T09:26:47;11.40;;;10.50;;
73841;SDS011;62184;52.006;5.924;2023-02-28T09:29:14;10.90;;;10.10;;
73841;SDS011;62184;52.006;5.924;2023-02-28T09:31:43;10.43;;;9.45;;
73841;SDS011;62184;52.006;5.924;2023-02-28T09:34:09;10.98;;;10.07;;
73841;SDS011;62184;52.006;5.924;2023-02-28T09:36:36;10.98;;;10.18;;
73841;SDS011;62184;52.006;5.924;2023-02-28T09:39:02;11.00;;;10.10;;
73841;SDS011;62184;52.006;5.924;2023-02-28T09:41:30;11.18;;;10.38;;
73841;SDS011;62184;52.006;5.924;2023-02-28T09:44:04;11.10;;;10.30;;
73841;SDS011;62184;52.006;5.924;2023-02-28T09:46:39;11.20;;;10.40;;
73841;SDS011;62184;52.006;5.924;2023-02-28T09:49:14;11.37;;;10.47;;
73841;SDS011;62184;52.006;5.924;2023-02-28T09:51:50;11.48;;;10.57;;
73841;SDS011;62184;52.006;5.924;2023-02-28T09:54:23;11.93;;;11.02;;
73841;SDS011;62184;52.006;5.924;2023-02-28T09:56:56;11.90;;;11.00;;
73841;SDS011;62184;52.006;5.924;2023-02-28T09:59:30;11.07;;;10.27;;
73841;SDS011;62184;52.006;5.924;2023-02-28T10:02:23;11.70;;;10.90;;
73841;SDS011;62184;52.006;5.924;2023-02-28T10:05:20;12.20;;;11.30;;
73841;SDS011;62184;52.006;5.924;2023-02-28T10:07:55;11.32;;;10.35;;
73841;SDS011;62184;52.006;5.924;2023-02-28T10:10:33;11.13;;;10.33;;
73841;SDS011;62184;52.006;5.924;2023-02-28T10:13:06;11.10;;;10.30;;
73841;SDS011;62184;52.006;5.924;2023-02-28T10:15:50;11.83;;;10.73;;
73841;SDS011;62184;52.006;5.924;2023-02-28T10:18:27;11.50;;;10.70;;
73841;SDS011;62184;52.006;5.924;2023-02-28T10:21:05;11.50;;;10.60;;
73841;SDS011;62184;52.006;5.924;2023-02-28T10:23:40;11.80;;;10.93;;
73841;SDS011;62184;52.006;5.924;2023-02-28T10:26:09;11.95;;;11.05;;
73841;SDS011;62184;52.006;5.924;2023-02-28T10:28:41;11.70;;;10.80;;
73841;SDS011;62184;52.006;5.924;2023-02-28T10:31:09;11.25;;;10.45;;
73841;SDS011;62184;52.006;5.924;2023-02-28T10:33:45;11.68;;;10.88;;
73841;SDS011;62184;52.006;5.924;2023-02-28T10:36:14;12.40;;;11.50;;
73841;SDS011;62184;52.006;5.924;2023-02-28T10:38:45;11.48;;;10.57;;
73841;SDS011;62184;52.006;5.924;2023-02-28T10:41:13;11.90;;;11.00;;
73841;SDS011;62184;52.006;5.924;2023-02-28T10:43:42;11.80;;;10.90;;
73841;SDS011;62184;52.006;5.924;2023-02-28T10:46:11;11.50;;;10.70;;
73841;SDS011;62184;52.006;5.924;2023-02-28T10:48:47;11.82;;;11.00;;
73841;SDS011;62184;52.006;5.924;2023-02-28T10:51:26;11.32;;;10.43;;
73841;SDS011;62184;52.006;5.924;2023-02-28T10:54:03;11.18;;;10.38;;
73841;SDS011;62184;52.006;5.924;2023-02-28T10:56:30;11.80;;;10.90;;
73841;SDS011;62184;52.006;5.924;2023-02-28T10:58:59;12.20;;;11.30;;
73841;SDS011;62184;52.006;5.924;2023-02-28T11:01:35;11.52;;;10.73;;
73841;SDS011;62184;52.006;5.924;2023-02-28T11:04:14;11.60;;;10.70;;
73841;SDS011;62184;52.006;5.924;2023-02-28T11:06:44;11.85;;;10.95;;
73841;SDS011;62184;52.006;5.924;2023-02-28T11:09:16;12.20;;;11.30;;
73841;SDS011;62184;52.006;5.924;2023-02-28T11:11:51;12.00;;;11.10;;
73841;SDS011;62184;52.006;5.924;2023-02-28T11:14:19;11.73;;;10.82;;
73841;SDS011;62184;52.006;5.924;2023-02-28T11:16:49;11.77;;;10.95;;
73841;SDS011;62184;52.006;5.924;2023-02-28T11:19:22;11.65;;;10.85;;
73841;SDS011;62184;52.006;5.924;2023-02-28T11:21:55;11.70;;;10.90;;
73841;SDS011;62184;52.006;5.924;2023-02-28T11:24:26;11.98;;;11.07;;
73841;SDS011;62184;52.006;5.924;2023-02-28T11:26:57;12.00;;;11.10;;
73841;SDS011;62184;52.006;5.924;2023-02-28T11:29:24;11.75;;;10.85;;
73841;SDS011;62184;52.006;5.924;2023-02-28T11:32:05;12.20;;;11.30;;
73841;SDS011;62184;52.006;5.924;2023-02-28T11:34:44;12.25;;;11.35;;
73841;SDS011;62184;52.006;5.924;2023-02-28T11:37:13;11.73;;;10.83;;
73841;SDS011;62184;52.006;5.924;2023-02-28T11:39:44;11.45;;;10.65;;
73841;SDS011;62184;52.006;5.924;2023-02-28T11:42:19;11.43;;;10.63;;
73841;SDS011;62184;52.006;5.924;2023-02-28T11:45:12;11.60;;;10.70;;
73841;SDS011;62184;52.006;5.924;2023-02-28T11:47:55;12.00;;;11.10;;
73841;SDS011;62184;52.006;5.924;2023-02-28T11:50:42;11.45;;;10.65;;
73841;SDS011;62184;52.006;5.924;2023-02-28T11:53:22;12.07;;;11.18;;
73841;SDS011;62184;52.006;5.924;2023-02-28T11:56:29;11.60;;;10.80;;
73841;SDS011;62184;52.006;5.924;2023-02-28T11:59:05;11.90;;;11.00;;
73841;SDS011;62184;52.006;5.924;2023-02-28T12:02:03;11.80;;;10.90;;
73841;SDS011;62184;52.006;5.924;2023-02-28T12:04:52;12.45;;;11.55;;
73841;SDS011;62184;52.006;5.924;2023-02-28T12:07:42;12.30;;;11.40;;
73841;SDS011;62184;52.006;5.924;2023-02-28T12:10:25;12.40;;;11.50;;
73841;SDS011;62184;52.006;5.924;2023-02-28T12:13:00;12.38;;;11.48;;
73841;SDS011;62184;52.006;5.924;2023-02-28T12:15:48;12.90;;;11.70;;
73841;SDS011;62184;52.006;5.924;2023-02-28T12:18:44;13.50;;;12.50;;
73841;SDS011;62184;52.006;5.924;2023-02-28T12:21:45;12.75;;;11.85;;
73841;SDS011;62184;52.006;5.924;2023-02-28T12:24:37;13.40;;;12.50;;
73841;SDS011;62184;52.006;5.924;2023-02-28T12:27:17;12.95;;;12.05;;
73841;SDS011;62184;52.006;5.924;2023-02-28T12:29:49;12.65;;;11.75;;
73841;SDS011;62184;52.006;5.924;2023-02-28T12:32:23;13.37;;;12.30;;
73841;SDS011;62184;52.006;5.924;2023-02-28T12:34:58;13.03;;;12.03;;
73841;SDS011;62184;52.006;5.924;2023-02-28T12:37:31;13.40;;;12.50;;
73841;SDS011;62184;52.006;5.924;2023-02-28T12:40:08;14.65;;;13.55;;
73841;SDS011;62184;52.006;5.924;2023-02-28T12:42:41;13.38;;;12.40;;
73841;SDS011;62184;52.006;5.924;2023-02-28T12:45:14;13.20;;;12.30;;
73841;SDS011;62184;52.006;5.924;2023-02-28T12:47:46;13.05;;;12.15;;
73841;SDS011;62184;52.006;5.924;2023-02-28T12:50:20;12.90;;;12.00;;
73841;SDS011;62184;52.006;5.924;2023-02-28T12:52:51;12.93;;;12.02;;
73841;SDS011;62184;52.006;5.924;2023-02-28T12:55:30;12.80;;;11.90;;
73841;SDS011;62184;52.006;5.924;2023-02-28T12:58:10;13.00;;;12.10;;
73841;SDS011;62184;52.006;5.924;2023-02-28T13:00:49;13.40;;;12.40;;
73841;SDS011;62184;52.006;5.924;2023-02-28T13:07:17;13.13;;;12.23;;
73841;SDS011;62184;52.006;5.924;2023-02-28T13:10:09;12.88;;;11.98;;
73841;SDS011;62184;52.006;5.924;2023-02-28T13:12:39;12.45;;;11.55;;
73841;SDS011;62184;52.006;5.924;2023-02-28T13:15:16;13.60;;;12.60;;
73841;SDS011;62184;52.006;5.924;2023-02-28T13:17:48;13.20;;;12.10;;
73841;SDS011;62184;52.006;5.924;2023-02-28T13:20:18;13.10;;;12.13;;
73841;SDS011;62184;52.006;5.924;2023-02-28T13:22:47;13.48;;;12.48;;
73841;SDS011;62184;52.006;5.924;2023-02-28T13:31:35;13.05;;;12.15;;
73841;SDS011;62184;52.006;5.924;2023-02-28T13:35:13;13.90;;;12.90;;
73841;SDS011;62184;52.006;5.924;2023-02-28T13:38:08;13.75;;;12.75;;
73841;SDS011;62184;52.006;5.924;2023-02-28T13:40:42;13.73;;;12.80;;
73841;SDS011;62184;52.006;5.924;2023-02-28T13:43:09;13.35;;;12.45;;
73841;SDS011;62184;52.006;5.924;2023-02-28T13:45:36;13.27;;;12.27;;
73841;SDS011;62184;52.006;5.924;2023-02-28T13:48:05;13.60;;;12.60;;
73841;SDS011;62184;52.006;5.924;2023-02-28T13:50:44;13.20;;;12.30;;
73841;SDS011;62184;52.006;5.924;2023-02-28T13:53:27;13.77;;;12.68;;
73841;SDS011;62184;52.006;5.924;2023-02-28T13:56:26;13.88;;;12.88;;
73841;SDS011;62184;52.006;5.924;2023-02-28T13:59:12;13.27;;;12.37;;
73841;SDS011;62184;52.006;5.924;2023-02-28T14:01:56;13.48;;;12.48;;
73841;SDS011;62184;52.006;5.924;2023-02-28T14:05:00;13.55;;;12.55;;
73841;SDS011;62184;52.006;5.924;2023-02-28T14:07:31;13.90;;;12.93;;
73841;SDS011;62184;52.006;5.924;2023-02-28T14:10:20;13.85;;;12.80;;
73841;SDS011;62184;52.006;5.924;2023-02-28T14:12:57;13.32;;;12.43;;
73841;SDS011;62184;52.006;5.924;2023-02-28T14:15:36;13.00;;;12.00;;
73841;SDS011;62184;52.006;5.924;2023-02-28T14:18:25;12.90;;;11.90;;
73841;SDS011;62184;52.006;5.924;2023-02-28T14:21:14;13.10;;;12.10;;
73841;SDS011;62184;52.006;5.924;2023-02-28T14:24:05;13.15;;;12.25;;
73841;SDS011;62184;52.006;5.924;2023-02-28T14:27:03;13.10;;;12.20;;
73841;SDS011;62184;52.006;5.924;2023-02-28T14:32:54;13.70;;;12.70;;
73841;SDS011;62184;52.006;5.924;2023-02-28T14:35:40;13.70;;;12.70;;
73841;SDS011;62184;52.006;5.924;2023-02-28T14:38:27;13.52;;;12.50;;
73841;SDS011;62184;52.006;5.924;2023-02-28T14:41:02;13.48;;;12.57;;
73841;SDS011;62184;52.006;5.924;2023-02-28T14:43:46;12.82;;;11.88;;
73841;SDS011;62184;52.006;5.924;2023-02-28T14:46:16;12.75;;;11.85;;
73841;SDS011;62184;52.006;5.924;2023-02-28T14:48:45;12.52;;;11.63;;
73841;SDS011;62184;52.006;5.924;2023-02-28T14:51:13;13.30;;;12.30;;
73841;SDS011;62184;52.006;5.924;2023-02-28T14:53:49;12.68;;;11.77;;
73841;SDS011;62184;52.006;5.924;2023-02-28T14:56:22;11.98;;;11.07;;
73841;SDS011;62184;52.006;5.924;2023-02-28T14:58:54;12.60;;;11.70;;
73841;SDS011;62184;52.006;5.924;2023-02-28T15:01:23;12.63;;;11.73;;
73841;SDS011;62184;52.006;5.924;2023-02-28T15:03:57;13.10;;;12.20;;
73841;SDS011;62184;52.006;5.924;2023-02-28T15:06:27;12.93;;;11.93;;
73841;SDS011;62184;52.006;5.924;2023-02-28T15:09:14;12.32;;;11.43;;
73841;SDS011;62184;52.006;5.924;2023-02-28T15:11:45;12.27;;;11.38;;
73841;SDS011;62184;52.006;5.924;2023-02-28T15:14:16;12.35;;;11.52;;
73841;SDS011;62184;52.006;5.924;2023-02-28T15:16:48;12.60;;;11.70;;
73841;SDS011;62184;52.006;5.924;2023-02-28T15:19:22;12.45;;;11.55;;
73841;SDS011;62184;52.006;5.924;2023-02-28T15:21:54;12.43;;;11.52;;
73841;SDS011;62184;52.006;5.924;2023-02-28T15:24:35;11.90;;;11.10;;
73841;SDS011;62184;52.006;5.924;2023-02-28T15:27:10;13.10;;;12.20;;